createdAt,value
2023-05-26T00:00:15.000Z,0
2023-05-26T00:01:19.000Z,0
2023-05-26T00:02:24.000Z,0
2023-05-26T00:03:28.000Z,0
2023-05-26T00:04:32.000Z,0
2023-05-26T00:05:36.000Z,0
2023-05-26T00:06:40.000Z,0
2023-05-26T00:07:45.000Z,0
2023-05-26T00:08:49.000Z,0
2023-05-26T00:09:53.000Z,0
2023-05-26T00:10:57.000Z,0
2023-05-26T00:12:01.000Z,0
2023-05-26T00:13:05.000Z,0
2023-05-26T00:14:09.000Z,0
2023-05-26T00:15:14.000Z,0
2023-05-26T00:16:18.000Z,0
2023-05-26T00:17:22.000Z,0
2023-05-26T00:18:26.000Z,0
2023-05-26T00:19:30.000Z,0
2023-05-26T00:20:34.000Z,0
2023-05-26T00:21:38.000Z,0
2023-05-26T00:22:42.000Z,0
2023-05-26T00:23:47.000Z,0
2023-05-26T00:24:51.000Z,0
2023-05-26T00:25:55.000Z,0
2023-05-26T00:26:59.000Z,0
2023-05-26T00:28:03.000Z,0
2023-05-26T00:29:08.000Z,0
2023-05-26T00:30:12.000Z,0
2023-05-26T00:31:16.000Z,0
2023-05-26T00:32:20.000Z,0
2023-05-26T00:33:24.000Z,0
2023-05-26T00:34:29.000Z,0
2023-05-26T00:35:33.000Z,0
2023-05-26T00:36:37.000Z,0
2023-05-26T00:37:41.000Z,0
2023-05-26T00:38:45.000Z,0
2023-05-26T00:39:49.000Z,0
2023-05-26T00:40:53.000Z,0
2023-05-26T00:41:58.000Z,0
2023-05-26T00:43:02.000Z,0
2023-05-26T00:44:06.000Z,0
2023-05-26T00:45:10.000Z,0
2023-05-26T00:46:14.000Z,0
2023-05-26T00:47:18.000Z,0
2023-05-26T00:48:22.000Z,0
2023-05-26T00:49:27.000Z,0
2023-05-26T00:50:31.000Z,0
2023-05-26T00:51:35.000Z,0
2023-05-26T00:52:39.000Z,0
2023-05-26T00:53:43.000Z,0
2023-05-26T00:54:47.000Z,0
2023-05-26T00:55:51.000Z,0
2023-05-26T00:56:56.000Z,0
2023-05-26T00:58:00.000Z,0
2023-05-26T00:59:04.000Z,0
2023-05-26T01:00:08.000Z,0
2023-05-26T01:01:12.000Z,0
2023-05-26T01:02:16.000Z,0
2023-05-26T01:03:21.000Z,0
2023-05-26T01:04:25.000Z,0
2023-05-26T01:05:29.000Z,0
2023-05-26T01:06:33.000Z,0
2023-05-26T01:07:37.000Z,0
2023-05-26T01:08:41.000Z,0
2023-05-26T01:09:46.000Z,0
2023-05-26T01:10:50.000Z,0
2023-05-26T01:11:54.000Z,0
2023-05-26T01:12:58.000Z,0
2023-05-26T01:14:02.000Z,0
2023-05-26T01:15:06.000Z,0
2023-05-26T01:16:11.000Z,0
2023-05-26T01:17:15.000Z,0
2023-05-26T01:18:19.000Z,0
2023-05-26T01:19:23.000Z,0
2023-05-26T01:20:27.000Z,0
2023-05-26T01:21:31.000Z,0
2023-05-26T01:22:35.000Z,0
2023-05-26T01:23:40.000Z,0
2023-05-26T01:24:44.000Z,0
2023-05-26T01:25:48.000Z,0
2023-05-26T01:26:52.000Z,0
2023-05-26T01:27:56.000Z,0
2023-05-26T01:29:00.000Z,0
2023-05-26T01:30:04.000Z,0
2023-05-26T01:31:14.000Z,0
2023-05-26T01:32:18.000Z,0
2023-05-26T01:33:22.000Z,0
2023-05-26T01:34:26.000Z,0
2023-05-26T01:35:30.000Z,0
2023-05-26T01:36:34.000Z,0
2023-05-26T01:37:38.000Z,0
2023-05-26T01:38:43.000Z,0
2023-05-26T01:39:47.000Z,0
2023-05-26T01:40:51.000Z,0
2023-05-26T01:41:55.000Z,0
2023-05-26T01:42:59.000Z,0
2023-05-26T01:44:03.000Z,0
2023-05-26T01:45:08.000Z,0
2023-05-26T01:46:12.000Z,0
2023-05-26T01:47:16.000Z,0
2023-05-26T01:48:20.000Z,0
2023-05-26T01:49:24.000Z,0
2023-05-26T01:50:28.000Z,0
2023-05-26T01:51:32.000Z,0
2023-05-26T01:52:37.000Z,0
2023-05-26T01:53:41.000Z,0
2023-05-26T01:54:45.000Z,0
2023-05-26T01:55:49.000Z,0
2023-05-26T01:56:53.000Z,0
2023-05-26T01:57:57.000Z,0
2023-05-26T01:59:01.000Z,0
2023-05-26T02:00:06.000Z,0
2023-05-26T02:01:10.000Z,0
2023-05-26T02:02:14.000Z,0
2023-05-26T02:03:18.000Z,0
2023-05-26T02:04:22.000Z,0
2023-05-26T02:05:26.000Z,0
2023-05-26T02:06:30.000Z,0
2023-05-26T02:07:35.000Z,0
2023-05-26T02:08:39.000Z,0
2023-05-26T02:09:43.000Z,0
2023-05-26T02:10:47.000Z,0
2023-05-26T02:11:51.000Z,0
2023-05-26T02:12:55.000Z,0
2023-05-26T02:13:59.000Z,0
2023-05-26T02:15:04.000Z,0
2023-05-26T02:16:08.000Z,0
2023-05-26T02:17:12.000Z,0
2023-05-26T02:18:16.000Z,0
2023-05-26T02:19:20.000Z,0
2023-05-26T02:20:24.000Z,0
2023-05-26T02:21:29.000Z,0
2023-05-26T02:22:33.000Z,0
2023-05-26T02:23:37.000Z,0
2023-05-26T02:24:41.000Z,0
2023-05-26T02:25:45.000Z,0
2023-05-26T02:26:49.000Z,0
2023-05-26T02:27:54.000Z,0
2023-05-26T02:28:58.000Z,0
2023-05-26T02:30:02.000Z,0
2023-05-26T02:31:06.000Z,0
2023-05-26T02:32:10.000Z,0
2023-05-26T02:33:14.000Z,0
2023-05-26T02:34:18.000Z,0
2023-05-26T02:35:23.000Z,0
2023-05-26T02:36:27.000Z,0
2023-05-26T02:37:31.000Z,0
2023-05-26T02:38:35.000Z,0
2023-05-26T02:39:39.000Z,0
2023-05-26T02:40:43.000Z,0
2023-05-26T02:41:48.000Z,0
2023-05-26T02:42:52.000Z,0
2023-05-26T02:43:56.000Z,0
2023-05-26T02:45:00.000Z,0
2023-05-26T02:46:04.000Z,0
2023-05-26T02:47:08.000Z,0
2023-05-26T02:48:12.000Z,0
2023-05-26T02:49:16.000Z,0
2023-05-26T02:50:21.000Z,0
2023-05-26T02:51:25.000Z,0
2023-05-26T02:52:29.000Z,0
2023-05-26T02:53:33.000Z,1
2023-05-26T02:54:37.000Z,1
2023-05-26T02:55:41.000Z,1
2023-05-26T02:56:46.000Z,1
2023-05-26T02:57:50.000Z,1
2023-05-26T02:58:54.000Z,1
2023-05-26T02:59:58.000Z,1
2023-05-26T03:01:02.000Z,2
2023-05-26T03:02:06.000Z,2
2023-05-26T03:03:11.000Z,2
2023-05-26T03:04:15.000Z,2
2023-05-26T03:05:19.000Z,3
2023-05-26T03:06:23.000Z,3
2023-05-26T03:07:27.000Z,3
2023-05-26T03:08:31.000Z,3
2023-05-26T03:09:35.000Z,4
2023-05-26T03:10:40.000Z,4
2023-05-26T03:11:44.000Z,4
2023-05-26T03:12:48.000Z,4
2023-05-26T03:13:52.000Z,5
2023-05-26T03:14:56.000Z,5
2023-05-26T03:16:00.000Z,6
2023-05-26T03:17:04.000Z,6
2023-05-26T03:18:09.000Z,6
2023-05-26T03:19:13.000Z,7
2023-05-26T03:20:17.000Z,7
2023-05-26T03:21:21.000Z,8
2023-05-26T03:22:25.000Z,8
2023-05-26T03:23:30.000Z,8
2023-05-26T03:24:34.000Z,9
2023-05-26T03:25:38.000Z,9
2023-05-26T03:26:42.000Z,9
2023-05-26T03:27:46.000Z,10
2023-05-26T03:28:50.000Z,10
2023-05-26T03:29:54.000Z,10
2023-05-26T03:30:59.000Z,11
2023-05-26T03:32:03.000Z,11
2023-05-26T03:33:07.000Z,12
2023-05-26T03:34:11.000Z,13
2023-05-26T03:35:15.000Z,14
2023-05-26T03:36:19.000Z,14
2023-05-26T03:37:23.000Z,15
2023-05-26T03:38:27.000Z,15
2023-05-26T03:39:32.000Z,16
2023-05-26T03:40:36.000Z,16
2023-05-26T03:41:40.000Z,17
2023-05-26T03:42:44.000Z,18
2023-05-26T03:43:48.000Z,19
2023-05-26T03:44:52.000Z,20
2023-05-26T03:45:57.000Z,22
2023-05-26T03:47:01.000Z,23
2023-05-26T03:48:05.000Z,24
2023-05-26T03:49:09.000Z,25
2023-05-26T03:50:13.000Z,28
2023-05-26T03:51:17.000Z,30
2023-05-26T03:52:22.000Z,32
2023-05-26T03:53:26.000Z,34
2023-05-26T03:54:30.000Z,35
2023-05-26T03:55:34.000Z,36
2023-05-26T03:56:38.000Z,37
2023-05-26T03:57:42.000Z,39
2023-05-26T03:58:47.000Z,42
2023-05-26T03:59:51.000Z,42
2023-05-26T04:00:55.000Z,42
2023-05-26T04:01:59.000Z,42
2023-05-26T04:03:03.000Z,42
2023-05-26T04:04:07.000Z,43
2023-05-26T04:05:11.000Z,44
2023-05-26T04:06:15.000Z,45
2023-05-26T04:07:20.000Z,46
2023-05-26T04:08:24.000Z,47
2023-05-26T04:09:28.000Z,47
2023-05-26T04:10:32.000Z,46
2023-05-26T04:11:36.000Z,45
2023-05-26T04:12:40.000Z,47
2023-05-26T04:13:44.000Z,48
2023-05-26T04:14:49.000Z,47
2023-05-26T04:15:53.000Z,47
2023-05-26T04:16:57.000Z,48
2023-05-26T04:18:01.000Z,48
2023-05-26T04:19:05.000Z,47
2023-05-26T04:20:09.000Z,48
2023-05-26T04:21:13.000Z,49
2023-05-26T04:22:18.000Z,51
2023-05-26T04:23:22.000Z,53
2023-05-26T04:24:26.000Z,52
2023-05-26T04:25:30.000Z,53
2023-05-26T04:26:34.000Z,51
2023-05-26T04:27:38.000Z,51
2023-05-26T04:28:43.000Z,51
2023-05-26T04:29:47.000Z,52
2023-05-26T04:30:51.000Z,52
2023-05-26T04:31:55.000Z,53
2023-05-26T04:32:59.000Z,54
2023-05-26T04:34:03.000Z,54
2023-05-26T04:35:08.000Z,54
2023-05-26T04:36:12.000Z,55
2023-05-26T04:37:16.000Z,56
2023-05-26T04:38:20.000Z,56
2023-05-26T04:39:24.000Z,56
2023-05-26T04:40:28.000Z,57
2023-05-26T04:41:33.000Z,57
2023-05-26T04:42:37.000Z,58
2023-05-26T04:43:41.000Z,58
2023-05-26T04:44:45.000Z,59
2023-05-26T04:45:49.000Z,59
2023-05-26T04:46:53.000Z,60
2023-05-26T04:47:57.000Z,60
2023-05-26T04:49:02.000Z,61
2023-05-26T04:50:06.000Z,61
2023-05-26T04:51:10.000Z,62
2023-05-26T04:52:14.000Z,62
2023-05-26T04:53:18.000Z,63
2023-05-26T04:54:22.000Z,63
2023-05-26T04:55:32.000Z,64
2023-05-26T04:56:36.000Z,64
2023-05-26T04:57:40.000Z,65
2023-05-26T04:58:44.000Z,66
2023-05-26T04:59:48.000Z,67
2023-05-26T05:00:52.000Z,66
2023-05-26T05:01:56.000Z,66
2023-05-26T05:03:01.000Z,67
2023-05-26T05:04:05.000Z,67
2023-05-26T05:05:09.000Z,67
2023-05-26T05:06:13.000Z,67
2023-05-26T05:07:17.000Z,68
2023-05-26T05:08:21.000Z,68
2023-05-26T05:09:25.000Z,69
2023-05-26T05:10:30.000Z,69
2023-05-26T05:11:34.000Z,69
2023-05-26T05:12:38.000Z,69
2023-05-26T05:13:42.000Z,70
2023-05-26T05:14:46.000Z,70
2023-05-26T05:15:50.000Z,70
2023-05-26T05:16:54.000Z,71
2023-05-26T05:17:58.000Z,72
2023-05-26T05:19:03.000Z,72
2023-05-26T05:20:07.000Z,72
2023-05-26T05:21:11.000Z,73
2023-05-26T05:22:15.000Z,74
2023-05-26T05:23:19.000Z,74
2023-05-26T05:24:23.000Z,75
2023-05-26T05:25:28.000Z,75
2023-05-26T05:26:32.000Z,76
2023-05-26T05:27:36.000Z,76
2023-05-26T05:28:40.000Z,77
2023-05-26T05:29:44.000Z,78
2023-05-26T05:30:49.000Z,78
2023-05-26T05:31:53.000Z,79
2023-05-26T05:32:57.000Z,79
2023-05-26T05:34:01.000Z,80
2023-05-26T05:35:05.000Z,80
2023-05-26T05:36:09.000Z,81
2023-05-26T05:37:14.000Z,81
2023-05-26T05:38:18.000Z,83
2023-05-26T05:39:22.000Z,85
2023-05-26T05:40:26.000Z,88
2023-05-26T05:41:30.000Z,93
2023-05-26T05:42:34.000Z,94
2023-05-26T05:43:38.000Z,94
2023-05-26T05:44:43.000Z,93
2023-05-26T05:45:47.000Z,94
2023-05-26T05:46:51.000Z,97
2023-05-26T05:47:55.000Z,99
2023-05-26T05:48:59.000Z,101
2023-05-26T05:50:03.000Z,103
2023-05-26T05:51:07.000Z,103
2023-05-26T05:52:12.000Z,101
2023-05-26T05:53:16.000Z,100
2023-05-26T05:54:20.000Z,99
2023-05-26T05:55:24.000Z,99
2023-05-26T05:56:28.000Z,98
2023-05-26T05:57:32.000Z,98
2023-05-26T05:58:37.000Z,97
2023-05-26T05:59:41.000Z,97
2023-05-26T06:00:45.000Z,97
2023-05-26T06:01:50.000Z,95
2023-05-26T06:02:54.000Z,93
2023-05-26T06:03:58.000Z,93
2023-05-26T06:05:03.000Z,92
2023-05-26T06:06:07.000Z,92
2023-05-26T06:07:11.000Z,92
2023-05-26T06:08:15.000Z,91
2023-05-26T06:09:19.000Z,91
2023-05-26T06:10:23.000Z,91
2023-05-26T06:11:28.000Z,83
2023-05-26T06:12:32.000Z,92
2023-05-26T06:13:36.000Z,92
2023-05-26T06:14:40.000Z,93
2023-05-26T06:15:44.000Z,93
2023-05-26T06:16:48.000Z,94
2023-05-26T06:17:52.000Z,94
2023-05-26T06:18:57.000Z,95
2023-05-26T06:20:01.000Z,96
2023-05-26T06:21:05.000Z,96
2023-05-26T06:22:09.000Z,97
2023-05-26T06:23:13.000Z,97
2023-05-26T06:24:17.000Z,98
2023-05-26T06:25:21.000Z,98
2023-05-26T06:26:25.000Z,98
2023-05-26T06:27:30.000Z,99
2023-05-26T06:28:34.000Z,99
2023-05-26T06:29:38.000Z,99
2023-05-26T06:30:42.000Z,99
2023-05-26T06:31:46.000Z,99
2023-05-26T06:32:50.000Z,99
2023-05-26T06:33:55.000Z,99
2023-05-26T06:34:59.000Z,99
2023-05-26T06:36:03.000Z,99
2023-05-26T06:37:07.000Z,100
2023-05-26T06:38:11.000Z,100
2023-05-26T06:39:15.000Z,101
2023-05-26T06:40:19.000Z,102
2023-05-26T06:41:24.000Z,103
2023-05-26T06:42:28.000Z,104
2023-05-26T06:43:32.000Z,105
2023-05-26T06:44:36.000Z,106
2023-05-26T06:45:40.000Z,106
2023-05-26T06:46:45.000Z,108
2023-05-26T06:47:49.000Z,109
2023-05-26T06:48:53.000Z,110
2023-05-26T06:49:57.000Z,111
2023-05-26T06:51:01.000Z,112
2023-05-26T06:52:05.000Z,114
2023-05-26T06:53:09.000Z,116
2023-05-26T06:54:14.000Z,119
2023-05-26T06:55:18.000Z,121
2023-05-26T06:56:22.000Z,123
2023-05-26T06:57:26.000Z,124
2023-05-26T06:58:30.000Z,124
2023-05-26T06:59:34.000Z,122
2023-05-26T07:00:38.000Z,122
2023-05-26T07:01:43.000Z,124
2023-05-26T07:02:47.000Z,124
2023-05-26T07:03:51.000Z,123
2023-05-26T07:04:55.000Z,122
2023-05-26T07:05:59.000Z,120
2023-05-26T07:07:03.000Z,120
2023-05-26T07:08:08.000Z,119
2023-05-26T07:09:12.000Z,120
2023-05-26T07:10:16.000Z,119
2023-05-26T07:11:20.000Z,119
2023-05-26T07:12:24.000Z,118
2023-05-26T07:13:28.000Z,118
2023-05-26T07:14:33.000Z,115
2023-05-26T07:15:37.000Z,115
2023-05-26T07:16:41.000Z,115
2023-05-26T07:17:45.000Z,116
2023-05-26T07:18:49.000Z,117
2023-05-26T07:19:53.000Z,117
2023-05-26T07:20:58.000Z,118
2023-05-26T07:22:02.000Z,118
2023-05-26T07:23:06.000Z,118
2023-05-26T07:24:10.000Z,119
2023-05-26T07:25:14.000Z,122
2023-05-26T07:26:18.000Z,123
2023-05-26T07:27:22.000Z,124
2023-05-26T07:28:27.000Z,126
2023-05-26T07:29:31.000Z,128
2023-05-26T07:30:35.000Z,132
2023-05-26T07:31:39.000Z,136
2023-05-26T07:32:43.000Z,139
2023-05-26T07:33:47.000Z,141
2023-05-26T07:34:51.000Z,145
2023-05-26T07:35:56.000Z,152
2023-05-26T07:37:00.000Z,156
2023-05-26T07:38:04.000Z,162
2023-05-26T07:39:08.000Z,167
2023-05-26T07:40:12.000Z,172
2023-05-26T07:41:16.000Z,176
2023-05-26T07:42:20.000Z,181
2023-05-26T07:43:25.000Z,186
2023-05-26T07:44:29.000Z,190
2023-05-26T07:45:33.000Z,194
2023-05-26T07:46:37.000Z,195
2023-05-26T07:47:41.000Z,203
2023-05-26T07:48:46.000Z,201
2023-05-26T07:49:50.000Z,205
2023-05-26T07:50:54.000Z,210
2023-05-26T07:51:58.000Z,213
2023-05-26T07:53:02.000Z,216
2023-05-26T07:54:07.000Z,217
2023-05-26T07:55:11.000Z,217
2023-05-26T07:56:15.000Z,215
2023-05-26T07:57:19.000Z,213
2023-05-26T07:58:23.000Z,211
2023-05-26T07:59:27.000Z,213
2023-05-26T08:00:31.000Z,211
2023-05-26T08:01:35.000Z,212
2023-05-26T08:02:40.000Z,210
2023-05-26T08:03:44.000Z,205
2023-05-26T08:04:48.000Z,203
2023-05-26T08:05:52.000Z,200
2023-05-26T08:06:56.000Z,202
2023-05-26T08:08:00.000Z,205
2023-05-26T08:09:05.000Z,212
2023-05-26T08:10:09.000Z,216
2023-05-26T08:11:13.000Z,223
2023-05-26T08:12:17.000Z,214
2023-05-26T08:13:21.000Z,205
2023-05-26T08:14:25.000Z,207
2023-05-26T08:15:29.000Z,217
2023-05-26T08:16:34.000Z,315
2023-05-26T08:17:38.000Z,265
2023-05-26T08:18:42.000Z,233
2023-05-26T08:19:46.000Z,227
2023-05-26T08:20:50.000Z,333
2023-05-26T08:21:54.000Z,292
2023-05-26T08:22:59.000Z,444
2023-05-26T08:24:03.000Z,337
2023-05-26T08:25:07.000Z,730
2023-05-26T08:26:11.000Z,440
2023-05-26T08:27:15.000Z,322
2023-05-26T08:28:19.000Z,334
2023-05-26T08:29:24.000Z,294
2023-05-26T08:30:28.000Z,620
2023-05-26T08:31:32.000Z,561
2023-05-26T08:32:36.000Z,242
2023-05-26T08:33:40.000Z,552
2023-05-26T08:34:44.000Z,680
2023-05-26T08:35:49.000Z,445
2023-05-26T08:36:53.000Z,373
2023-05-26T08:37:57.000Z,355
2023-05-26T08:39:01.000Z,529
2023-05-26T08:40:05.000Z,273
2023-05-26T08:41:09.000Z,914
2023-05-26T08:42:14.000Z,739
2023-05-26T08:43:18.000Z,704
2023-05-26T08:44:22.000Z,724
2023-05-26T08:45:26.000Z,635
2023-05-26T08:46:30.000Z,476
2023-05-26T08:47:34.000Z,379
2023-05-26T08:48:39.000Z,835
2023-05-26T08:49:43.000Z,777
2023-05-26T08:50:47.000Z,751
2023-05-26T08:51:51.000Z,412
2023-05-26T08:52:55.000Z,881
2023-05-26T08:53:59.000Z,851
2023-05-26T08:55:03.000Z,829
2023-05-26T08:56:08.000Z,718
2023-05-26T08:57:12.000Z,548
2023-05-26T08:58:16.000Z,1079
2023-05-26T08:59:20.000Z,846
2023-05-26T09:00:24.000Z,683
2023-05-26T09:01:28.000Z,741
2023-05-26T09:02:33.000Z,865
2023-05-26T09:03:37.000Z,738
2023-05-26T09:04:41.000Z,691
2023-05-26T09:05:45.000Z,1025
2023-05-26T09:06:49.000Z,1076
2023-05-26T09:07:53.000Z,903
2023-05-26T09:08:58.000Z,793
2023-05-26T09:10:02.000Z,502
2023-05-26T09:11:06.000Z,777
2023-05-26T09:12:10.000Z,556
2023-05-26T09:13:14.000Z,610
2023-05-26T09:14:18.000Z,714
2023-05-26T09:15:23.000Z,532
2023-05-26T09:16:27.000Z,571
2023-05-26T09:17:31.000Z,655
2023-05-26T09:18:35.000Z,594
2023-05-26T09:19:39.000Z,664
2023-05-26T09:20:43.000Z,665
2023-05-26T09:21:47.000Z,718
2023-05-26T09:22:52.000Z,551
2023-05-26T09:23:56.000Z,679
2023-05-26T09:25:00.000Z,561
2023-05-26T09:26:04.000Z,930
2023-05-26T09:27:08.000Z,954
2023-05-26T09:28:12.000Z,566
2023-05-26T09:29:16.000Z,697
2023-05-26T09:30:20.000Z,258
2023-05-26T09:31:25.000Z,294
2023-05-26T09:32:29.000Z,497
2023-05-26T09:33:33.000Z,641
2023-05-26T09:34:37.000Z,528
2023-05-26T09:35:41.000Z,752
2023-05-26T09:36:45.000Z,833
2023-05-26T09:37:50.000Z,976
2023-05-26T09:38:54.000Z,642
2023-05-26T09:39:58.000Z,949
2023-05-26T09:41:02.000Z,824
2023-05-26T09:42:06.000Z,629
2023-05-26T09:43:10.000Z,1022
2023-05-26T09:44:15.000Z,552
2023-05-26T09:45:19.000Z,573
2023-05-26T09:46:23.000Z,463
2023-05-26T09:47:27.000Z,471
2023-05-26T09:48:31.000Z,465
2023-05-26T09:49:35.000Z,414
2023-05-26T09:50:40.000Z,418
2023-05-26T09:51:44.000Z,451
2023-05-26T09:52:48.000Z,547
2023-05-26T09:53:52.000Z,628
2023-05-26T09:54:56.000Z,639
2023-05-26T09:56:00.000Z,776
2023-05-26T09:57:04.000Z,851
2023-05-26T09:58:09.000Z,962
2023-05-26T09:59:13.000Z,956
2023-05-26T10:00:17.000Z,1098
2023-05-26T10:01:21.000Z,1004
2023-05-26T10:02:25.000Z,954
2023-05-26T10:03:29.000Z,919
2023-05-26T10:04:33.000Z,935
2023-05-26T10:05:37.000Z,928
2023-05-26T10:06:42.000Z,849
2023-05-26T10:07:46.000Z,759
2023-05-26T10:08:50.000Z,860
2023-05-26T10:09:54.000Z,717
2023-05-26T10:10:58.000Z,834
2023-05-26T10:12:02.000Z,876
2023-05-26T10:13:06.000Z,820
2023-05-26T10:14:11.000Z,817
2023-05-26T10:15:15.000Z,871
2023-05-26T10:16:19.000Z,909
2023-05-26T10:17:23.000Z,948
2023-05-26T10:18:27.000Z,922
2023-05-26T10:19:32.000Z,908
2023-05-26T10:20:36.000Z,907
2023-05-26T10:21:40.000Z,903
2023-05-26T10:22:44.000Z,903
2023-05-26T10:23:48.000Z,898
2023-05-26T10:24:52.000Z,956
2023-05-26T10:25:57.000Z,829
2023-05-26T10:27:01.000Z,742
2023-05-26T10:28:05.000Z,759
2023-05-26T10:29:09.000Z,818
2023-05-26T10:30:13.000Z,917
2023-05-26T10:31:17.000Z,900
2023-05-26T10:32:22.000Z,926
2023-05-26T10:33:26.000Z,967
2023-05-26T10:34:30.000Z,957
2023-05-26T10:35:34.000Z,924
2023-05-26T10:36:38.000Z,906
2023-05-26T10:37:42.000Z,807
2023-05-26T10:38:46.000Z,748
2023-05-26T10:39:51.000Z,880
2023-05-26T10:40:55.000Z,869
2023-05-26T10:41:59.000Z,943
2023-05-26T10:43:03.000Z,971
2023-05-26T10:44:07.000Z,458
2023-05-26T10:45:11.000Z,913
2023-05-26T10:46:16.000Z,886
2023-05-26T10:47:20.000Z,899
2023-05-26T10:48:24.000Z,947
2023-05-26T10:49:28.000Z,930
2023-05-26T10:50:32.000Z,906
2023-05-26T10:51:36.000Z,892
2023-05-26T10:52:41.000Z,877
2023-05-26T10:53:45.000Z,912
2023-05-26T10:54:49.000Z,901
2023-05-26T10:55:53.000Z,903
2023-05-26T10:56:57.000Z,891
2023-05-26T10:58:02.000Z,863
2023-05-26T10:59:06.000Z,862
2023-05-26T11:00:10.000Z,912
2023-05-26T11:01:14.000Z,933
2023-05-26T11:02:18.000Z,894
2023-05-26T11:03:22.000Z,862
2023-05-26T11:04:26.000Z,905
2023-05-26T11:05:31.000Z,904
2023-05-26T11:06:35.000Z,891
2023-05-26T11:07:39.000Z,872
2023-05-26T11:08:43.000Z,933
2023-05-26T11:09:47.000Z,933
2023-05-26T11:10:51.000Z,912
2023-05-26T11:11:56.000Z,937
2023-05-26T11:13:00.000Z,963
2023-05-26T11:14:04.000Z,965
2023-05-26T11:15:08.000Z,966
2023-05-26T11:16:12.000Z,944
2023-05-26T11:17:16.000Z,904
2023-05-26T11:18:20.000Z,921
2023-05-26T11:19:25.000Z,941
2023-05-26T11:20:29.000Z,946
2023-05-26T11:21:33.000Z,977
2023-05-26T11:22:37.000Z,942
2023-05-26T11:23:41.000Z,892
2023-05-26T11:24:45.000Z,913
2023-05-26T11:25:50.000Z,945
2023-05-26T11:26:54.000Z,919
2023-05-26T11:27:58.000Z,915
2023-05-26T11:29:02.000Z,884
2023-05-26T11:30:06.000Z,958
2023-05-26T11:31:10.000Z,970
2023-05-26T11:32:15.000Z,977
2023-05-26T11:33:19.000Z,1014
2023-05-26T11:34:23.000Z,999
2023-05-26T11:35:27.000Z,1013
2023-05-26T11:36:31.000Z,925
2023-05-26T11:37:36.000Z,917
2023-05-26T11:38:40.000Z,996
2023-05-26T11:39:44.000Z,966
2023-05-26T11:40:48.000Z,829
2023-05-26T11:41:52.000Z,797
2023-05-26T11:42:56.000Z,764
2023-05-26T11:44:00.000Z,672
2023-05-26T11:45:05.000Z,748
2023-05-26T11:46:09.000Z,894
2023-05-26T11:47:13.000Z,935
2023-05-26T11:48:17.000Z,885
2023-05-26T11:49:21.000Z,890
2023-05-26T11:50:25.000Z,851
2023-05-26T11:51:30.000Z,837
2023-05-26T11:52:34.000Z,930
2023-05-26T11:53:38.000Z,894
2023-05-26T11:54:42.000Z,868
2023-05-26T11:55:46.000Z,873
2023-05-26T11:56:50.000Z,842
2023-05-26T11:57:55.000Z,896
2023-05-26T11:58:59.000Z,949
2023-05-26T12:00:03.000Z,935
2023-05-26T12:01:07.000Z,888
2023-05-26T12:02:11.000Z,905
2023-05-26T12:03:15.000Z,963
2023-05-26T12:04:19.000Z,970
2023-05-26T12:05:24.000Z,881
2023-05-26T12:06:28.000Z,868
2023-05-26T12:07:32.000Z,908
2023-05-26T12:08:36.000Z,907
2023-05-26T12:09:40.000Z,905
2023-05-26T12:10:44.000Z,915
2023-05-26T12:11:48.000Z,921
2023-05-26T12:12:53.000Z,953
2023-05-26T12:13:57.000Z,959
2023-05-26T12:15:01.000Z,922
2023-05-26T12:16:05.000Z,952
2023-05-26T12:17:09.000Z,895
2023-05-26T12:18:13.000Z,731
2023-05-26T12:19:17.000Z,744
2023-05-26T12:20:22.000Z,869
2023-05-26T12:21:26.000Z,853
2023-05-26T12:22:30.000Z,824
2023-05-26T12:23:34.000Z,836
2023-05-26T12:24:38.000Z,831
2023-05-26T12:25:42.000Z,804
2023-05-26T12:26:46.000Z,818
2023-05-26T12:27:51.000Z,925
2023-05-26T12:28:55.000Z,1004
2023-05-26T12:29:10.000Z,842
2023-05-26T12:29:59.000Z,910
2023-05-26T12:31:03.000Z,876
2023-05-26T12:32:07.000Z,859
2023-05-26T12:33:11.000Z,844
2023-05-26T12:34:16.000Z,869
2023-05-26T12:35:20.000Z,886
2023-05-26T12:36:24.000Z,869
2023-05-26T12:37:28.000Z,815
2023-05-26T12:38:32.000Z,225
2023-05-26T12:39:36.000Z,704
2023-05-26T12:40:40.000Z,672
2023-05-26T12:41:44.000Z,705
2023-05-26T12:42:49.000Z,843
2023-05-26T12:43:53.000Z,911
2023-05-26T12:44:57.000Z,890
2023-05-26T12:46:01.000Z,918
2023-05-26T12:47:05.000Z,946
2023-05-26T12:48:09.000Z,901
2023-05-26T12:49:13.000Z,905
2023-05-26T12:50:18.000Z,929
2023-05-26T12:51:22.000Z,904
2023-05-26T13:18:03.000Z,783
2023-05-26T13:19:10.000Z,820
2023-05-26T13:20:15.000Z,870
2023-05-26T13:21:20.000Z,846
2023-05-26T13:22:27.000Z,823
2023-05-26T13:23:34.000Z,799
2023-05-26T13:24:38.000Z,709
2023-05-26T13:25:42.000Z,625
2023-05-26T13:26:46.000Z,631
2023-05-26T13:27:51.000Z,689
2023-05-26T13:28:55.000Z,730
2023-05-26T13:29:59.000Z,807
2023-05-26T13:31:03.000Z,866
2023-05-26T13:32:07.000Z,800
2023-05-26T13:33:11.000Z,777
2023-05-26T13:34:16.000Z,756
2023-05-26T13:35:20.000Z,734
2023-05-26T13:36:24.000Z,743
2023-05-26T13:37:28.000Z,763
2023-05-26T13:38:32.000Z,709
2023-05-26T13:39:36.000Z,711
2023-05-26T13:40:41.000Z,703
2023-05-26T13:41:45.000Z,724
2023-05-26T13:42:49.000Z,752
2023-05-26T13:43:53.000Z,748
2023-05-26T13:44:57.000Z,731
2023-05-26T13:46:01.000Z,513
2023-05-26T13:47:05.000Z,782
2023-05-26T13:48:10.000Z,734
2023-05-26T13:49:14.000Z,692
2023-05-26T13:50:18.000Z,753
2023-05-26T13:51:22.000Z,700
2023-05-26T13:52:26.000Z,715
2023-05-26T13:53:30.000Z,719
2023-05-26T13:54:35.000Z,678
2023-05-26T13:55:39.000Z,690
2023-05-26T13:56:43.000Z,731
2023-05-26T13:57:47.000Z,738
2023-05-26T13:58:51.000Z,723
2023-05-26T13:59:55.000Z,687
2023-05-26T14:00:59.000Z,650
2023-05-26T14:02:03.000Z,736
2023-05-26T14:03:08.000Z,757
2023-05-26T14:04:12.000Z,719
2023-05-26T14:05:16.000Z,714
2023-05-26T14:06:20.000Z,695
2023-05-26T14:07:24.000Z,697
2023-05-26T14:08:28.000Z,708
2023-05-26T14:09:32.000Z,684
2023-05-26T14:10:37.000Z,695
2023-05-26T14:11:41.000Z,661
2023-05-26T14:12:45.000Z,735
2023-05-26T14:13:49.000Z,771
2023-05-26T14:14:53.000Z,691
2023-05-26T14:15:57.000Z,668
2023-05-26T14:17:02.000Z,694
2023-05-26T14:18:06.000Z,711
2023-05-26T14:19:10.000Z,704
2023-05-26T14:20:14.000Z,665
2023-05-26T14:21:18.000Z,626
2023-05-26T14:22:23.000Z,596
2023-05-26T14:23:27.000Z,598
2023-05-26T14:24:31.000Z,673
2023-05-26T14:25:35.000Z,638
2023-05-26T14:26:39.000Z,640
2023-05-26T14:27:43.000Z,705
2023-05-26T14:28:47.000Z,691
2023-05-26T14:29:51.000Z,685
2023-05-26T14:30:56.000Z,672
2023-05-26T14:32:00.000Z,628
2023-05-26T14:33:04.000Z,648
2023-05-26T14:34:08.000Z,676
2023-05-26T14:35:12.000Z,620
2023-05-26T14:36:16.000Z,629
2023-05-26T14:37:21.000Z,640
2023-05-26T14:38:25.000Z,644
2023-05-26T14:39:29.000Z,621
2023-05-26T14:40:33.000Z,626
2023-05-26T14:41:37.000Z,614
2023-05-26T14:42:41.000Z,634
2023-05-26T14:43:45.000Z,637
2023-05-26T14:44:50.000Z,656
2023-05-26T14:45:54.000Z,609
2023-05-26T14:46:58.000Z,561
2023-05-26T14:48:02.000Z,575
2023-05-26T14:49:06.000Z,588
2023-05-26T14:50:10.000Z,569
2023-05-26T14:51:15.000Z,600
2023-05-26T14:52:19.000Z,625
2023-05-26T14:53:23.000Z,578
2023-05-26T14:54:27.000Z,545
2023-05-26T14:55:31.000Z,552
2023-05-26T14:56:35.000Z,520
2023-05-26T14:57:40.000Z,429
2023-05-26T14:58:44.000Z,268
2023-05-26T14:59:48.000Z,235
2023-05-26T15:00:52.000Z,223
2023-05-26T15:01:56.000Z,214
2023-05-26T15:03:00.000Z,245
2023-05-26T15:04:05.000Z,154
2023-05-26T15:05:09.000Z,142
2023-05-26T15:06:13.000Z,139
2023-05-26T15:07:17.000Z,139
2023-05-26T15:08:21.000Z,153
2023-05-26T15:09:25.000Z,160
2023-05-26T15:10:29.000Z,175
2023-05-26T15:11:34.000Z,229
2023-05-26T15:12:38.000Z,207
2023-05-26T15:13:42.000Z,235
2023-05-26T15:14:46.000Z,379
2023-05-26T15:15:50.000Z,343
2023-05-26T15:16:54.000Z,216
2023-05-26T15:17:59.000Z,130
2023-05-26T15:19:03.000Z,138
2023-05-26T15:20:07.000Z,152
2023-05-26T15:21:11.000Z,146
2023-05-26T15:22:15.000Z,128
2023-05-26T15:23:19.000Z,123
2023-05-26T15:24:24.000Z,135
2023-05-26T15:25:28.000Z,132
2023-05-26T15:26:32.000Z,120
2023-05-26T15:27:36.000Z,119
2023-05-26T15:28:40.000Z,119